CheckWX is a tool to help pilots better visualize weather data.  It is not intended as a substitute for an official pre-flight weather briefing.

16:56:28 UTC

PASD TAF
Sand Point Airport
Sand Point, Alaska, USA
PASD 181135Z 1812/1912 VRB06KT P6SM VCSH BKN080 OVC100 AMD LTD TO CLD VIS AND WIND

Jun-18@
12:00 UTC

Jun-18 @ 12:00 UTC

Jun-19@
12:00 UTC

Jun-19 @ 12:00 UTC

PASD 181135Z 1812/1912 VRB06KT P6SM VCSH BKN080 OVC100 AMD LTD TO CLD VIS AND WIND
Wind
  • Variable at 6 KTS
Cloud Levels
  • Broken at 8,000' AGL
  • Overcast at 10,000' AGL